createdAt,value
2022-09-13T00:01:08.457Z,100123.25
2022-09-13T00:03:34.915Z,100117.59
2022-09-13T00:06:13.003Z,100126.88
2022-09-13T00:08:41.966Z,100118.19
2022-09-13T00:11:19.513Z,100116.50
2022-09-13T00:13:46.930Z,100102.19
2022-09-13T00:16:14.912Z,100088.94
2022-09-13T00:18:41.814Z,100084.09
2022-09-13T00:21:11.648Z,100084.50
2022-09-13T00:23:39.039Z,100087.03
2022-09-13T00:26:11.856Z,100081.16
2022-09-13T00:28:40.756Z,100087.47
2022-09-13T00:31:09.360Z,100076.31
2022-09-13T00:33:36.242Z,100076.75
2022-09-13T00:36:08.361Z,100076.94
2022-09-13T00:38:35.883Z,100077.84
2022-09-13T00:41:09.834Z,100075.25
2022-09-13T00:43:48.796Z,100083.47
2022-09-13T00:46:38.158Z,100084.13
2022-09-13T00:49:13.514Z,100089.16
2022-09-13T00:51:45.166Z,100093.19
2022-09-13T00:54:17.119Z,100098.91
2022-09-13T00:56:48.917Z,100096.16
2022-09-13T00:59:28.620Z,100092.16
2022-09-13T01:01:57.462Z,100095.16
2022-09-13T01:04:29.947Z,100089.25
2022-09-13T01:07:03.334Z,100094.94
2022-09-13T01:09:33.176Z,100083.81
2022-09-13T01:12:25.667Z,100072.66
2022-09-13T01:14:52.318Z,100078.56
2022-09-13T01:17:18.965Z,100083.81
2022-09-13T01:19:45.414Z,100091.63
2022-09-13T01:22:23.817Z,100091.41
2022-09-13T01:25:28.215Z,100090.59
2022-09-13T01:28:12.306Z,100093.53
2022-09-13T01:30:51.891Z,100095.66
2022-09-13T01:33:24.267Z,100093.75
2022-09-13T01:36:13.444Z,100079.19
2022-09-13T01:38:51.928Z,100079.63
2022-09-13T01:41:36.462Z,100080.91
2022-09-13T01:44:24.396Z,100082.59
2022-09-13T01:47:08.428Z,100092.94
2022-09-13T01:50:07.597Z,100091.47
2022-09-13T01:52:56.275Z,100095.66
2022-09-13T01:55:33.426Z,100097.72
2022-09-13T01:58:15.963Z,100103.63
2022-09-13T02:01:08.300Z,100098.59
2022-09-13T02:03:57.716Z,100093.09
2022-09-13T02:06:29.526Z,100085.94
2022-09-13T02:09:00.962Z,100087.41
2022-09-13T02:11:27.945Z,100091.66
2022-09-13T02:14:09.247Z,100089.97
2022-09-13T02:16:45.937Z,100102.59
2022-09-13T02:19:20.117Z,100106.38
2022-09-13T02:21:52.884Z,100104.06
2022-09-13T02:24:33.733Z,100105.75
2022-09-13T02:27:05.321Z,100097.75
2022-09-13T02:29:38.353Z,100112.69
2022-09-13T02:32:16.320Z,100110.38
2022-09-13T02:34:57.577Z,100122.38
2022-09-13T02:37:27.843Z,100117.31
2022-09-13T02:39:59.618Z,100112.25
2022-09-13T02:42:41.871Z,100121.94
2022-09-13T02:45:09.958Z,100113.97
2022-09-13T02:48:00.038Z,100123.22
2022-09-13T02:50:44.613Z,100119.22
2022-09-13T02:53:30.569Z,100109.09
2022-09-13T02:56:02.606Z,100114.16
2022-09-13T02:58:35.025Z,100119.63
2022-09-13T03:01:04.685Z,100114.34
2022-09-13T03:03:31.263Z,100104.06
2022-09-13T03:05:57.705Z,100104.25
2022-09-13T03:08:24.736Z,100102.56
2022-09-13T03:11:23.491Z,100105.53
2022-09-13T03:14:29.156Z,100093.50
2022-09-13T03:17:16.265Z,100101.53
2022-09-13T03:19:59.244Z,100102.38
2022-09-13T03:22:54.019Z,100087.22
2022-09-13T03:25:26.562Z,100088.69
2022-09-13T03:28:06.973Z,100095.00
2022-09-13T03:30:37.110Z,100086.78
2022-09-13T03:33:20.610Z,100093.13
2022-09-13T03:36:11.814Z,100075.44
2022-09-13T03:38:44.607Z,100050.59
2022-09-13T03:41:17.976Z,100048.69
2022-09-13T03:43:50.386Z,100057.13
2022-09-13T03:46:31.358Z,100070.59
2022-09-13T03:49:02.880Z,100068.47
2022-09-13T03:51:29.512Z,100065.53
2022-09-13T03:54:01.251Z,100052.28
2022-09-13T03:56:27.777Z,100057.75
2022-09-13T03:58:54.194Z,100063.25
2022-09-13T04:01:23.448Z,100075.03
2022-09-13T04:03:56.533Z,100064.94
2022-09-13T04:06:23.495Z,100067.44
2022-09-13T04:08:54.879Z,100076.06
2022-09-13T04:11:26.150Z,100082.81
2022-09-13T04:13:55.335Z,100090.78
2022-09-13T04:16:24.837Z,100098.38
2022-09-13T04:18:51.299Z,100093.75
2022-09-13T04:21:22.647Z,100096.50
2022-09-13T04:23:52.414Z,100097.34
2022-09-13T04:26:18.758Z,100092.91
2022-09-13T04:28:45.101Z,100095.84
2022-09-13T04:31:11.604Z,100099.44
2022-09-13T04:33:41.169Z,100095.41
2022-09-13T04:36:07.582Z,100083.88
2022-09-13T04:38:34.020Z,100080.28
2022-09-13T04:41:00.450Z,100084.91
2022-09-13T04:43:26.871Z,100084.91
2022-09-13T04:45:53.331Z,100087.88
2022-09-13T04:48:21.900Z,100093.94
2022-09-13T04:50:50.607Z,100099.03
2022-09-13T04:53:17.597Z,100086.78
2022-09-13T04:55:44.371Z,100083.44
2022-09-13T04:58:10.812Z,100088.94
2022-09-13T05:00:37.426Z,100091.00
2022-09-13T05:03:03.867Z,100088.50
2022-09-13T05:05:32.241Z,100092.06
2022-09-13T05:07:58.680Z,100088.66
2022-09-13T05:10:27.985Z,100101.13
2022-09-13T05:12:54.331Z,100104.88
2022-09-13T05:15:23.291Z,100102.16
2022-09-13T05:17:49.668Z,100104.03
2022-09-13T05:20:18.670Z,100106.38
2022-09-13T05:22:45.080Z,100113.75
2022-09-13T05:25:14.072Z,100115.00
2022-09-13T05:27:43.486Z,100122.19
2022-09-13T05:30:10.469Z,100130.16
2022-09-13T05:32:36.853Z,100125.13
2022-09-13T05:35:03.437Z,100125.75
2022-09-13T05:37:31.241Z,100124.47
2022-09-13T05:40:13.109Z,100124.69
2022-09-13T05:42:39.899Z,100121.31
2022-09-13T05:45:07.099Z,100124.03
2022-09-13T05:47:33.563Z,100117.47
2022-09-13T05:50:10.159Z,100123.38
2022-09-13T05:52:37.342Z,100131.34
2022-09-13T05:55:06.862Z,100130.72
2022-09-13T05:57:33.243Z,100126.50
2022-09-13T05:59:59.701Z,100115.03
2022-09-13T06:02:28.421Z,100117.31
2022-09-13T06:04:57.202Z,100117.69
2022-09-13T06:07:23.558Z,100117.63
2022-09-13T06:09:50.440Z,100126.19
2022-09-13T06:12:16.872Z,100131.22
2022-09-13T06:14:45.531Z,100130.75
2022-09-13T06:17:11.888Z,100119.06
2022-09-13T06:19:39.722Z,100104.63
2022-09-13T06:22:06.565Z,100103.28
2022-09-13T06:24:38.312Z,100108.88
2022-09-13T06:27:07.093Z,100117.06
2022-09-13T06:29:33.530Z,100115.53
2022-09-13T06:31:59.983Z,100110.84
2022-09-13T06:34:31.130Z,100103.59
2022-09-13T06:36:58.759Z,100102.09
2022-09-13T06:39:27.672Z,100097.34
2022-09-13T06:41:54.082Z,100099.66
2022-09-13T06:44:20.441Z,100096.69
2022-09-13T06:46:47.649Z,100105.94
2022-09-13T06:49:14.093Z,100107.16
2022-09-13T06:51:40.513Z,100109.63
2022-09-13T06:54:07.008Z,100121.00
2022-09-13T06:56:36.052Z,100112.91
2022-09-13T06:59:05.417Z,100106.75
2022-09-13T07:01:36.503Z,100104.13
2022-09-13T07:04:06.484Z,100123.44
2022-09-13T07:06:36.162Z,100124.38
2022-09-13T07:09:05.878Z,100123.38
2022-09-13T07:11:35.277Z,100122.44
2022-09-13T07:14:02.246Z,100120.66
2022-09-13T07:16:33.998Z,100114.81
2022-09-13T07:19:03.060Z,100119.03
2022-09-13T07:21:29.534Z,100107.66
2022-09-13T07:23:56.877Z,100110.59
2022-09-13T07:26:24.866Z,100107.06
2022-09-13T07:28:59.784Z,100111.88
2022-09-13T07:31:29.109Z,100110.47
2022-09-13T07:34:00.456Z,100105.81
2022-09-13T07:36:28.630Z,100116.50
2022-09-13T07:38:55.144Z,100123.09
2022-09-13T07:41:23.653Z,100123.81
2022-09-13T07:43:51.829Z,100122.63
2022-09-13T07:46:21.309Z,100129.47
2022-09-13T07:48:49.523Z,100121.06
2022-09-13T07:51:18.482Z,100126.84
2022-09-13T07:53:57.095Z,100132.84
2022-09-13T07:56:27.407Z,100131.84
2022-09-13T07:58:55.120Z,100121.88
2022-09-13T08:01:31.041Z,100118.47
2022-09-13T08:04:03.630Z,100118.44
2022-09-13T08:06:32.601Z,100121.56
2022-09-13T08:08:59.209Z,100116.16
2022-09-13T08:11:44.603Z,100105.19
2022-09-13T08:14:15.393Z,100106.38
2022-09-13T08:16:44.909Z,100105.50
2022-09-13T08:19:14.768Z,100127.69
2022-09-13T08:21:42.403Z,100118.25
2022-09-13T08:24:14.106Z,100124.81
2022-09-13T08:26:41.085Z,100125.16
2022-09-13T08:29:07.845Z,100139.44
2022-09-13T08:31:37.827Z,100113.00
2022-09-13T08:34:04.272Z,100112.59
2022-09-13T08:36:38.402Z,100117.38
2022-09-13T08:39:04.843Z,100102.47
2022-09-13T08:41:39.318Z,100092.56
2022-09-13T08:44:07.831Z,100092.44
2022-09-13T08:46:41.344Z,100099.63
2022-09-13T08:49:32.440Z,100088.91
2022-09-13T08:52:05.352Z,100108.94
2022-09-13T08:54:32.759Z,100097.81
2022-09-13T08:57:25.992Z,100093.84
2022-09-13T09:00:17.785Z,100096.06
2022-09-13T09:03:11.714Z,100101.44
2022-09-13T09:05:54.497Z,100104.84
2022-09-13T09:08:38.886Z,100114.91
2022-09-13T09:11:12.706Z,100113.59
2022-09-13T09:13:53.495Z,100109.47
2022-09-13T09:16:35.229Z,100115.06
2022-09-13T09:19:17.863Z,100080.88
2022-09-13T09:21:47.198Z,100106.53
2022-09-13T09:24:21.833Z,100131.25
2022-09-13T09:26:50.817Z,100102.84
2022-09-13T09:29:25.043Z,100124.66
2022-09-13T09:32:01.587Z,100099.00
2022-09-13T09:34:42.654Z,100102.38
2022-09-13T09:37:21.125Z,100123.44
2022-09-13T09:39:49.231Z,100136.34
2022-09-13T09:42:21.311Z,100140.91
2022-09-13T09:45:03.607Z,100147.63
2022-09-13T09:47:39.629Z,100140.47
2022-09-13T09:50:19.266Z,100146.97
2022-09-13T09:53:10.059Z,100164.72
2022-09-13T09:55:53.364Z,100142.75
2022-09-13T09:58:37.316Z,100156.56
2022-09-13T10:01:03.986Z,100185.75
2022-09-13T10:03:33.453Z,100177.16
2022-09-13T10:06:09.225Z,100158.66
2022-09-13T10:08:41.813Z,100152.81
2022-09-13T10:11:09.351Z,100140.03
2022-09-13T10:13:37.233Z,100152.53
2022-09-13T10:16:25.148Z,100130.56
2022-09-13T10:18:51.641Z,100101.69
2022-09-13T10:21:17.971Z,100124.72
2022-09-13T10:23:47.080Z,100087.19
2022-09-13T10:26:18.652Z,100160.06
2022-09-13T10:28:51.980Z,100148.38
2022-09-13T10:31:20.951Z,100135.34
2022-09-13T10:33:58.242Z,100138.94
2022-09-13T10:36:51.006Z,100120.03
2022-09-13T10:39:18.709Z,100125.06
2022-09-13T10:41:50.397Z,100152.03
2022-09-13T10:44:26.507Z,100156.78
2022-09-13T10:46:55.296Z,100151.19
2022-09-13T10:49:50.504Z,100149.53
2022-09-13T10:52:31.202Z,100156.22
2022-09-13T10:55:29.122Z,100147.31
2022-09-13T10:58:01.782Z,100132.25
2022-09-13T11:00:36.682Z,100135.38
2022-09-13T11:03:29.829Z,100116.69
2022-09-13T11:06:15.482Z,100107.81
2022-09-13T11:08:46.417Z,100106.13
2022-09-13T11:11:43.471Z,100113.63
2022-09-13T11:14:38.954Z,100112.22
2022-09-13T11:17:18.942Z,100121.97
2022-09-13T11:19:58.954Z,100133.41
2022-09-13T11:22:25.255Z,100117.81
2022-09-13T11:25:11.242Z,100119.47
2022-09-13T11:27:49.568Z,100091.66
2022-09-13T11:30:20.494Z,100106.66
2022-09-13T11:32:59.264Z,100093.31
2022-09-13T11:35:44.312Z,100094.97
2022-09-13T11:38:38.047Z,100113.91
2022-09-13T11:41:23.744Z,100149.50
2022-09-13T11:44:21.140Z,100141.16
2022-09-13T11:47:02.704Z,100158.44
2022-09-13T11:49:55.127Z,100111.66
2022-09-13T11:52:49.773Z,100055.47
2022-09-13T11:55:33.621Z,100053.22
2022-09-13T11:58:07.303Z,100060.75
2022-09-13T12:00:45.411Z,100060.97
2022-09-13T12:03:37.248Z,100101.59
2022-09-13T12:06:14.413Z,100054.19
2022-09-13T12:08:51.524Z,100051.38
2022-09-13T12:11:38.653Z,100094.34
2022-09-13T12:14:13.530Z,100066.53
2022-09-13T12:16:59.313Z,100066.50
2022-09-13T12:19:28.991Z,100042.19
2022-09-13T12:21:59.994Z,100047.47
2022-09-13T12:24:46.120Z,100064.72
2022-09-13T12:27:26.544Z,100054.44
2022-09-13T12:29:57.488Z,100042.44
2022-09-13T12:32:26.681Z,100037.44
2022-09-13T12:35:07.942Z,100038.00
2022-09-13T12:37:44.298Z,100040.84
2022-09-13T12:40:44.221Z,100019.47
2022-09-13T12:43:16.787Z,99978.59
2022-09-13T12:46:16.039Z,100018.69
2022-09-13T12:49:10.344Z,100008.38
2022-09-13T12:51:42.419Z,100017.56
2022-09-13T12:54:47.148Z,100000.03
2022-09-13T12:57:23.827Z,100011.13
2022-09-13T13:00:14.927Z,99982.47
2022-09-13T13:02:59.624Z,99963.19
2022-09-13T13:05:30.838Z,100012.84
2022-09-13T13:08:06.836Z,99960.19
2022-09-13T13:10:38.659Z,99972.97
2022-09-13T13:13:35.932Z,99942.56
2022-09-13T13:16:20.824Z,99991.56
2022-09-13T13:18:52.490Z,99994.28
2022-09-13T13:21:37.257Z,100019.03
2022-09-13T13:24:15.773Z,100033.97
2022-09-13T13:26:42.127Z,99975.25
2022-09-13T13:29:18.039Z,99995.00
2022-09-13T13:32:07.654Z,100012.81
2022-09-13T13:34:39.026Z,100022.88
2022-09-13T13:37:28.241Z,99946.00
2022-09-13T13:40:13.177Z,100031.06
2022-09-13T13:42:40.996Z,100031.31
2022-09-13T13:45:21.285Z,100006.81
2022-09-13T13:48:07.143Z,99977.59
2022-09-13T13:50:36.248Z,100007.75
2022-09-13T13:53:20.966Z,100007.75
2022-09-13T13:55:49.295Z,99995.25
2022-09-13T13:58:29.646Z,100006.16
2022-09-13T14:01:02.316Z,100012.03
2022-09-13T14:03:44.835Z,100001.13
2022-09-13T14:06:21.622Z,100026.84
2022-09-13T14:11:55.765Z,100004.81
2022-09-13T14:14:46.327Z,99973.56
2022-09-13T14:17:31.898Z,99979.63
2022-09-13T14:20:09.439Z,99931.47
2022-09-13T14:22:38.675Z,99947.06
2022-09-13T14:25:19.963Z,99950.66
2022-09-13T14:27:48.663Z,99927.25
2022-09-13T14:30:20.181Z,99939.81
2022-09-13T14:32:47.807Z,99960.78
2022-09-13T14:35:36.892Z,99979.16
2022-09-13T14:38:33.248Z,99955.47
2022-09-13T14:41:13.473Z,99931.56
2022-09-13T14:43:43.759Z,99945.16
2022-09-13T14:46:34.946Z,99948.41
2022-09-13T14:49:07.176Z,99878.72
2022-09-13T14:51:40.782Z,99923.03
2022-09-13T14:54:17.644Z,99928.28
2022-09-13T14:56:55.049Z,99941.94
2022-09-13T14:59:52.259Z,99937.78
2022-09-13T15:02:22.788Z,99924.19
2022-09-13T15:04:55.916Z,99920.25
2022-09-13T15:07:30.039Z,99911.63
2022-09-13T15:10:12.944Z,99903.25
2022-09-13T15:12:58.157Z,99890.34
2022-09-13T15:15:37.855Z,99883.19
2022-09-13T15:18:16.498Z,99885.41
2022-09-13T15:21:03.444Z,99855.34
2022-09-13T15:23:39.326Z,99854.53
2022-09-13T15:26:20.905Z,99879.38
2022-09-13T15:29:00.536Z,99889.38
2022-09-13T15:31:29.542Z,99880.47
2022-09-13T15:34:17.972Z,99868.75
2022-09-13T15:36:45.695Z,99851.13
2022-09-13T15:39:17.657Z,99863.41
2022-09-13T15:42:03.829Z,99834.28
2022-09-13T15:44:30.324Z,99804.41
2022-09-13T15:47:02.408Z,99808.88
2022-09-13T15:49:32.197Z,99822.31
2022-09-13T15:52:05.538Z,99811.75
2022-09-13T15:54:41.294Z,99819.03
2022-09-13T15:57:19.526Z,99786.13
2022-09-13T15:59:46.032Z,99795.69
2022-09-13T16:02:23.167Z,99761.41
2022-09-13T16:04:52.030Z,99782.41
2022-09-13T16:07:19.401Z,99798.59
2022-09-13T16:09:46.531Z,99804.22
2022-09-13T16:12:12.909Z,99799.84
2022-09-13T16:14:42.353Z,99790.91
2022-09-13T16:17:16.822Z,99794.34
2022-09-13T16:19:43.172Z,99797.44
2022-09-13T16:22:12.658Z,99790.81
2022-09-13T16:24:39.433Z,99755.19
2022-09-13T16:27:05.947Z,99753.06
2022-09-13T16:29:32.493Z,99776.75
2022-09-13T16:32:05.315Z,99765.41
2022-09-13T16:34:34.456Z,99772.97
2022-09-13T16:37:05.909Z,99776.28
2022-09-13T16:39:32.411Z,99768.56
2022-09-13T16:41:58.849Z,99759.16
2022-09-13T16:44:25.369Z,99746.44
2022-09-13T16:46:52.138Z,99770.91
2022-09-13T16:49:18.849Z,99765.91
2022-09-13T16:51:48.163Z,99778.13
2022-09-13T16:54:14.572Z,99766.75
2022-09-13T16:56:41.385Z,99760.59
2022-09-13T16:59:07.990Z,99769.47
2022-09-13T17:01:34.593Z,99758.06
2022-09-13T17:04:01.830Z,99754.53
2022-09-13T17:06:28.302Z,99762.63
2022-09-13T17:09:03.539Z,99755.97
2022-09-13T17:11:33.269Z,99764.59
2022-09-13T17:14:01.299Z,99769.09
2022-09-13T17:16:31.041Z,99752.94
2022-09-13T17:18:59.880Z,99756.06
2022-09-13T17:21:29.306Z,99758.06
2022-09-13T17:23:55.743Z,99759.47
2022-09-13T17:26:22.540Z,99762.28
2022-09-13T17:28:49.541Z,99769.78
2022-09-13T17:31:16.826Z,99770.63
2022-09-13T17:33:46.202Z,99768.16
2022-09-13T17:36:14.142Z,99752.34
2022-09-13T17:38:43.255Z,99755.16
2022-09-13T17:41:17.428Z,99755.97
2022-09-13T17:43:45.687Z,99742.69
2022-09-13T17:46:23.599Z,99732.97
2022-09-13T17:48:56.994Z,99744.66
2022-09-13T17:51:25.956Z,99744.66
2022-09-13T17:53:58.767Z,99751.34
2022-09-13T17:56:30.839Z,99755.78
2022-09-13T17:59:05.843Z,99742.19
2022-09-13T18:01:37.053Z,99744.19
2022-09-13T18:04:03.868Z,99737.78
2022-09-13T18:06:30.358Z,99733.66
2022-09-13T18:08:58.308Z,99733.09
2022-09-13T18:11:24.774Z,99734.78
2022-09-13T18:13:53.924Z,99731.72
2022-09-13T18:16:24.818Z,99735.63
2022-09-13T18:18:52.759Z,99730.38
2022-09-13T18:21:22.485Z,99745.09
2022-09-13T18:23:50.680Z,99747.59
2022-09-13T18:26:20.182Z,99749.50
2022-09-13T18:28:47.929Z,99751.44
2022-09-13T18:31:17.887Z,99757.56
2022-09-13T18:33:45.638Z,99762.00
2022-09-13T18:36:14.822Z,99777.53
2022-09-13T18:38:44.280Z,99773.09
2022-09-13T18:41:18.163Z,99779.75
2022-09-13T18:43:52.951Z,99773.34
2022-09-13T18:47:00.574Z,99780.25
2022-09-13T18:50:04.482Z,99784.41
2022-09-13T18:53:08.266Z,99782.47
2022-09-13T18:56:12.450Z,99761.91
2022-09-13T18:59:16.508Z,99778.56
2022-09-13T19:02:20.554Z,99772.47
2022-09-13T19:05:24.760Z,99764.69
2022-09-13T19:08:29.597Z,99763.00
2022-09-13T19:11:49.566Z,99761.63
2022-09-13T19:14:53.829Z,99764.66
2022-09-13T19:17:58.117Z,99763.50
2022-09-13T19:21:04.738Z,99760.19
2022-09-13T19:24:16.261Z,99764.03
2022-09-13T19:27:20.619Z,99754.34
2022-09-13T19:30:24.577Z,99756.53
2022-09-13T19:33:28.775Z,99760.16
2022-09-13T19:36:34.460Z,99773.97
2022-09-13T19:39:38.830Z,99767.31
2022-09-13T19:42:43.471Z,99766.47
2022-09-13T19:45:10.965Z,99768.94
2022-09-13T19:50:24.487Z,99760.94
2022-09-13T19:52:50.845Z,99764.78
2022-09-13T19:55:17.414Z,99766.16
2022-09-13T19:57:45.104Z,99772.75
2022-09-13T20:00:12.272Z,99772.69
2022-09-13T20:02:38.613Z,99775.13
2022-09-13T20:05:08.662Z,99778.44
2022-09-13T20:07:35.153Z,99786.41
2022-09-13T20:10:04.184Z,99781.38
2022-09-13T20:12:32.836Z,99785.78
2022-09-13T20:14:59.262Z,99776.84
2022-09-13T20:17:25.593Z,99781.78
2022-09-13T20:19:52.435Z,99787.28
2022-09-13T20:22:18.863Z,99791.69
2022-09-13T20:24:45.609Z,99788.34
2022-09-13T20:27:12.701Z,99785.53
2022-09-13T20:29:42.326Z,99774.47
2022-09-13T20:32:09.443Z,99777.78
2022-09-13T20:34:37.729Z,99768.41
2022-09-13T20:37:04.603Z,99770.59
2022-09-13T20:39:31.383Z,99767.84
2022-09-13T20:42:00.270Z,99766.41
2022-09-13T20:44:26.742Z,99771.66
2022-09-13T20:46:55.419Z,99776.63
2022-09-13T20:49:23.590Z,99774.38
2022-09-13T20:51:50.091Z,99773.25
2022-09-13T20:54:16.474Z,99767.13
2022-09-13T20:56:43.003Z,99759.34
2022-09-13T20:59:10.124Z,99750.50
2022-09-13T21:01:36.550Z,99753.53
2022-09-13T21:04:03.615Z,99749.91
2022-09-13T21:06:32.243Z,99748.81
2022-09-13T21:09:00.083Z,99764.63
2022-09-13T21:11:35.625Z,99763.81
2022-09-13T21:14:06.526Z,99764.97
2022-09-13T21:16:35.832Z,99749.50
2022-09-13T21:19:03.339Z,99745.34
2022-09-13T21:21:31.900Z,99745.34
2022-09-13T21:24:00.408Z,99753.06
2022-09-13T21:26:31.458Z,99745.03
2022-09-13T21:28:58.702Z,99740.06
2022-09-13T21:31:30.566Z,99744.22
2022-09-13T21:34:17.198Z,99728.69
2022-09-13T21:36:44.886Z,99726.16
2022-09-13T21:39:14.672Z,99727.84
2022-09-13T21:41:41.134Z,99724.47
2022-09-13T21:44:10.318Z,99731.63
2022-09-13T21:46:38.258Z,99721.16
2022-09-13T21:49:09.105Z,99729.41
2022-09-13T21:51:38.717Z,99724.66
2022-09-13T21:54:08.589Z,99728.25
2022-09-13T21:56:42.607Z,99719.41
2022-09-13T21:59:14.431Z,99713.59
2022-09-13T22:01:42.047Z,99707.22
2022-09-13T22:04:13.118Z,99698.94
2022-09-13T22:06:39.534Z,99697.00
2022-09-13T22:09:11.071Z,99705.59
2022-09-13T22:11:40.218Z,99701.13
2022-09-13T22:14:09.351Z,99692.78
2022-09-13T22:16:38.786Z,99698.28
2022-09-13T22:19:20.145Z,99692.19
2022-09-13T22:21:50.906Z,99678.34
2022-09-13T22:24:19.887Z,99673.34
2022-09-13T22:26:47.714Z,99664.81
2022-09-13T22:29:17.400Z,99670.06
2022-09-13T22:31:46.281Z,99660.13
2022-09-13T22:34:18.750Z,99655.69
2022-09-13T22:36:45.664Z,99662.91
2022-09-13T22:39:13.895Z,99651.22
2022-09-13T22:41:40.486Z,99656.75
2022-09-13T22:44:07.636Z,99652.31
2022-09-13T22:46:37.413Z,99657.81
2022-09-13T22:49:07.247Z,99656.91
2022-09-13T22:51:34.232Z,99641.09
2022-09-13T22:54:05.014Z,99647.75
2022-09-13T22:56:34.469Z,99638.31
2022-09-13T22:59:12.299Z,99622.50
2022-09-13T23:01:39.481Z,99613.97
2022-09-13T23:04:06.690Z,99618.34
2022-09-13T23:06:34.492Z,99608.94
2022-09-13T23:09:03.849Z,99619.44
2022-09-13T23:11:40.092Z,99610.84
2022-09-13T23:14:14.747Z,99612.78
2022-09-13T23:16:48.746Z,99618.25
2022-09-13T23:19:16.646Z,99615.78
2022-09-13T23:21:43.839Z,99606.66
2022-09-13T23:24:15.986Z,99597.97
2022-09-13T23:26:47.947Z,99601.09
2022-09-13T23:29:19.117Z,99601.41
2022-09-13T23:31:51.958Z,99608.34
2022-09-13T23:34:18.516Z,99616.91
2022-09-13T23:36:46.234Z,99631.53
2022-09-13T23:39:19.805Z,99636.50
2022-09-13T23:41:47.499Z,99636.25
2022-09-13T23:44:14.601Z,99636.50
2022-09-13T23:46:42.664Z,99630.09
2022-09-13T23:49:11.695Z,99638.66
2022-09-13T23:51:40.804Z,99654.84
2022-09-13T23:54:09.783Z,99671.72
2022-09-13T23:56:36.164Z,99681.34
2022-09-13T23:59:04.086Z,99703.97
